Flight Number: AVA1036 Duration: 0:30
Departure: Innsbruck (LOWI) at 09:00 Distance: 68.8192 Nm
Arrival: Munich intl Airport (EDDM) at 09:30 Equipment: B1900D

Weather Information
Innsbruck-Flughafen, Austria (LOWI) 47-16N 011-21E 593M Apr 05, 2020 - 08:20 AM EDT / 2020.04.05 1220 UTC
Wind: from the E (080 degrees) at 6 MPH (5 KT) (direction variable):0
Visibility: greater than 7 mile(s):0 Temperature: 64 F (18 C) Dew Point: 30 F (-1 C) Relative Humidity: 27% Pressure (altimeter): 30.12 in. Hg (1020 hPa)
ob: LOWI 051220Z 08005KT 040V140 CAVOK 18/M01 Q1020 NOSIG cycle: 12
Sunrise: 04:47 Sunset: 17:47 (UTC)

Munchen, Germany (EDDM) 48-21N 011-47E Apr 05, 2020 - 08:20 AM EDT / 2020.04.05 1220 UTC
Wind: from the E (080 degrees) at 14 MPH (12 KT) (direction variable):0
Visibility: greater than 7 mile(s):0 Temperature: 59 F (15 C) Dew Point: 30 F (-1 C) Relative Humidity: 33% Pressure (altimeter): 30.21 in. Hg (1023 hPa)
ob: EDDM 051220Z 08012KT 050V110 CAVOK 15/M01 Q1023 NOSIG cycle: 12
Sunrise: 04:44 Sunset: 17:46 (UTC)

TAF:2020/04/05 12:27 TAF EDDM 051100Z 0512/0618 08012KT CAVOK BECMG 0516/0518 08005KT BECMG 0522/0524 VRB02KT TEMPO 0612/0617 04005KT

Previous Pireps for this route
Date Aircraft Flight time Fuel used Landing rate On time
2017-04-19B1900D0.363950Charter
2017-04-24B1900D01.23594-463Charter
2017-04-27B1900D01.01472-472Yes
2017-05-13B1900D01.10497-312Charter
2017-05-23DHC60.41020Charter
2017-06-12B1900D0.34120Charter
2018-02-21A330-200F0.267350-43Charter
2018-10-05B1900D0.333870Charter
2018-10-14B1900D0.33900Charter
2019-01-20B1900D0.37417-538Charter
(pireps marked green are flown by you)

Route map